NY/NJ Local METAR Reports

No Warnings, Watches, or Advisories
KNYC - NYC/Central Park, NY, USA
Distance from station: NE 4mi, 7km
Updated: 02/05/2023 11:51pm
Clear
Clear
 Wind from calm
Wind: Calm
Temperature: 45°F , 7°C
Dew Point: 21°F , -6°C
Humidity: 39%
Barometer: 30.01 inHg , 1016.3 hPa
Clouds: Clear
Visibility: 10 miles , 16 km
2023/02/06 04:51 KNYC 060451Z AUTO 00000KT 10SM CLR 07/M06 A3001 RMK AO2 SLP154 T00671061 400941028 $
KEWR - Newark, NJ, USA
Distance from station: WSW 8mi, 13km
Updated: 02/05/2023 11:51pm
Mostly cloudy
Mostly cloudy
 Wind from S
Wind: S 3 mph , 6 km/h
Temperature: 39°F , 4°C
Dew Point: 25°F , -4°C
Humidity: 56%
Barometer: 29.99 inHg , 1015.6 hPa
Clouds: Mostly cloudy
Visibility: 10 miles , 16 km
Cloud details: Mostly cloudy 15000 ft
Mostly cloudy 21000 ft
2023/02/06 04:51 KEWR 060451Z 18003KT 10SM BKN150 BKN210 04/M04 A2999 RMK AO2 SLP156 T00441039 401061039
 
KLGA - NYC/La Guardia, NY, USA
Distance from station: ENE 8mi, 13km
Updated: 02/05/2023 11:51pm
Mostly cloudy
Mostly cloudy
 Wind from S
Wind: S 8 mph , 13 km/h
Temperature: 43°F , 6°C
Wind Chill: 38°F , 3°C
Dew Point: 28°F , -2°C
Humidity: 57%
Barometer: 30.00 inHg , 1015.9 hPa
Clouds: Mostly cloudy
Visibility: 10 miles , 16 km
Cloud details: Partly cloudy 11000 ft
Mostly cloudy 25000 ft
2023/02/06 04:51 KLGA 060451Z 18007KT 10SM SCT110 BKN250 06/M02 A3000 RMK AO2 SLP157 T00561017 400891033
KTEB - Teterboro, NJ, USA
Distance from station: N 9mi, 14km
Updated: 02/05/2023 11:51pm
Clear
Clear
 Wind from calm
Wind: Calm
Temperature: 36°F , 2°C
Dew Point: 25°F , -4°C
Humidity: 65%
Barometer: 29.99 inHg , 1015.6 hPa
Clouds: Clear
Visibility: 10 miles , 16 km
2023/02/06 04:51 KTEB 060451Z 00000KT 10SM CLR 02/M04 A2999 RMK AO2 SLP154 T00171039 400891050
 
KJFK - NYC/Jfk Arpt, NY, USA
Distance from station: ESE 16mi, 25km
Updated: 02/05/2023 11:51pm
Mostly cloudy
Mostly cloudy
 Wind from S
Wind: S 9 mph , 15 km/h
Temperature: 37°F , 3°C
Wind Chill: 30°F , -1°C
Dew Point: 34°F , 1°C
Humidity: 87%
Barometer: 30.01 inHg , 1016.3 hPa
Clouds: Mostly cloudy
Visibility: 10 miles , 16 km
Cloud details: Partly cloudy 17000 ft
Mostly cloudy 25000 ft
2023/02/06 04:51 KJFK 060451Z 18008KT 10SM SCT170 BKN250 03/01 A3001 RMK AO2 SLP162 T00330011 400671028
KCDW - Caldwell, NJ, USA
Distance from station: NW 16mi, 26km
Updated: 02/05/2023 11:53pm
Few Clouds
Few Clouds
 Wind from calm
Wind: Calm
Temperature: 34°F , 1°C
Dew Point: 23°F , -5°C
Humidity: 65%
Barometer: 29.99 inHg , 1015.6 hPa
Clouds: Few Clouds
Visibility: 10 miles , 16 km
Cloud details: Few Clouds 12000 ft
2023/02/06 04:53 KCDW 060453Z 00000KT 10SM FEW120 01/M05 A2999 RMK AO2 SLP164 T00061050 400941056
 
KMMU - Morristown Muni, NJ, USA
Distance from station: W 20mi, 33km
Updated: 02/06/2023 12:35am
Overcast
Overcast
 Wind from calm
Wind: Calm
Temperature: 32°F , 0°C
Dew Point: 27°F , -3°C
Humidity: 80%
Barometer: 29.99 inHg , 1015.6 hPa
Clouds: Overcast
Visibility: 10 miles , 16 km
Cloud details: Overcast 11000 ft
2023/02/06 05:35 KMMU 060535Z AUTO 00000KT 10SM OVC110 M00/M03 A2999 RMK AO2
KHPN - White Plains, NY, USA
Distance from station: NE 28mi, 46km
Updated: 02/05/2023 11:56pm
Clear
Clear
 Wind from SSE
Wind: SSE 3 mph , 6 km/h
Temperature: 36°F , 2°C
Dew Point: 27°F , -3°C
Humidity: 70%
Barometer: 29.98 inHg , 1015.2 hPa
Clouds: Clear
Visibility: 10 miles , 16 km
2023/02/06 04:56 KHPN 060456Z 16003KT 10SM CLR 02/M03 A2998 RMK AO2 SLP157 T00221033 400781056
 
KFRG - Farmingdale, NY, USA
Distance from station: E 32mi, 52km
Updated: 02/05/2023 11:53pm
Clear
Clear
 Wind from SSW
Wind: SSW 6 mph , 9 km/h
Temperature: 39°F , 4°C
Wind Chill: 35°F , 2°C
Dew Point: 36°F , 2°C
Humidity: 87%
Barometer: 30.01 inHg , 1016.3 hPa
Clouds: Clear
Visibility: 10 miles , 16 km
2023/02/06 04:53 KFRG 060453Z AUTO 21005KT 10SM CLR 04/02 A3001 RMK AO2 SLP162 T00440017 400721017 $
KSMQ - Somerville, NJ, USA
Distance from station: WSW 34mi, 55km
Updated: 02/05/2023 11:53pm
Mostly cloudy
Mostly cloudy
 Wind from calm
Wind: Calm
Temperature: 30°F , -1°C
Dew Point: 25°F , -4°C
Humidity: 80%
Barometer: 29.98 inHg , 1015.2 hPa
Clouds: Mostly cloudy
Visibility: 10 miles , 16 km
Cloud details: Mostly cloudy 11000 ft
2023/02/06 04:53 KSMQ 060453Z AUTO 00000KT 10SM BKN110 M01/M04 A2998 RMK AO2 SLP155 T10061044 401001078
 
KBLM - Belmar/Farmdale, NJ, USA
Distance from station: S 40mi, 64km
Updated: 02/05/2023 11:56pm
Clear
Clear
 Wind from S
Wind: S 6 mph , 9 km/h
Barometer: 30.03 inHg , 1016.9 hPa
Clouds: Clear
Visibility: 10 miles , 16 km
2023/02/06 04:56 KBLM 060456Z AUTO 19005KT 10SM CLR A3003 RMK AO2 SLPNO FZRANO $
K12N - Andover, NJ, USA
Distance from station: WNW 41mi, 67km
Updated: 02/05/2023 11:54pm

 Wind from calm
Wind: Calm
Temperature: 36°F , 2°C
Dew Point: 27°F , -3°C
Humidity: 70%
Barometer: 29.98 inHg , 1015.2 hPa
2023/02/06 04:54 K12N 060454Z AUTO 00000KT 02/M03 A2998 RMK AO1 SLP158 T00171028 400941067
 
KFWN - Sussex, NJ, USA
Distance from station: NW 45mi, 72km
Updated: 02/05/2023 11:53pm
Overcast
Overcast
 Wind from calm
Wind: Calm
Temperature: 34°F , 1°C
Dew Point: 27°F , -3°C
Humidity: 75%
Barometer: 29.98 inHg , 1015.2 hPa
Clouds: Overcast
Visibility: 10 miles , 16 km
Cloud details: Overcast 9000 ft
2023/02/06 04:53 KFWN 060453Z AUTO 00000KT 10SM OVC090 01/M03 A2998 RMK AO2 SLP154 T00061033 400941078
KISP - Islip, NY, USA
Distance from station: E 49mi, 79km
Updated: 02/05/2023 11:56pm
Mostly cloudy
Mostly cloudy
 Wind from SSW
Wind: SSW 8 mph , 13 km/h
Temperature: 43°F , 6°C
Wind Chill: 38°F , 3°C
Dew Point: 37°F , 3°C
Humidity: 81%
Barometer: 30.00 inHg , 1015.9 hPa
Clouds: Mostly cloudy
Visibility: 10 miles , 16 km
Cloud details: Partly cloudy 19000 ft
Mostly cloudy 25000 ft
2023/02/06 04:56 KISP 060456Z 21007KT 10SM SCT190 BKN250 06/03 A3000 RMK AO2 SLP160 LAST T00560033 400671022